createdAt,value
2018-12-04T00:00:40.659Z,48.77
2018-12-04T00:01:40.861Z,48.76
2018-12-04T00:02:40.744Z,48.84
2018-12-04T00:03:41.014Z,48.86
2018-12-04T00:04:40.612Z,48.79
2018-12-04T00:05:40.757Z,48.85
2018-12-04T00:06:40.684Z,48.87
2018-12-04T00:07:40.799Z,48.84
2018-12-04T00:08:40.894Z,48.77
2018-12-04T00:09:41.785Z,48.83
2018-12-04T00:10:40.893Z,48.86
2018-12-04T00:11:40.724Z,48.82
2018-12-04T00:12:40.962Z,48.74
2018-12-04T00:13:40.701Z,48.77
2018-12-04T00:14:40.728Z,48.82
2018-12-04T00:15:40.618Z,48.78
2018-12-04T00:16:41.050Z,48.76
2018-12-04T00:17:40.956Z,48.84
2018-12-04T00:18:40.980Z,48.81
2018-12-04T00:19:41.106Z,48.85
2018-12-04T00:20:41.058Z,48.82
2018-12-04T00:21:40.957Z,48.8
2018-12-04T00:22:40.780Z,48.83
2018-12-04T00:23:40.570Z,48.82
2018-12-04T00:24:40.635Z,48.84
2018-12-04T00:25:40.707Z,48.8
2018-12-04T00:26:41.047Z,48.79
2018-12-04T00:27:40.768Z,48.85
2018-12-04T00:28:40.909Z,48.84
2018-12-04T00:29:41.077Z,48.85
2018-12-04T00:30:41.703Z,48.89
2018-12-04T00:31:40.977Z,48.84
2018-12-04T00:32:40.797Z,48.82
2018-12-04T00:33:40.903Z,48.83
2018-12-04T00:34:41.110Z,48.85
2018-12-04T00:35:40.780Z,48.83
2018-12-04T00:36:40.678Z,48.85
2018-12-04T00:37:41.111Z,48.85
2018-12-04T00:38:40.647Z,48.86
2018-12-04T00:39:41.032Z,48.83
2018-12-04T00:40:41.149Z,48.82
2018-12-04T00:41:40.787Z,48.85
2018-12-04T00:42:40.646Z,48.84
2018-12-04T00:43:40.665Z,48.8
2018-12-04T00:44:40.826Z,48.91
2018-12-04T00:45:41.003Z,48.85
2018-12-04T00:46:41.050Z,48.85
2018-12-04T00:47:41.313Z,48.88
2018-12-04T00:48:41.059Z,48.86
2018-12-04T00:49:40.685Z,48.86
2018-12-04T00:50:40.707Z,48.82
2018-12-04T00:51:40.972Z,48.88
2018-12-04T00:52:40.828Z,48.89
2018-12-04T00:53:41.077Z,48.84
2018-12-04T00:54:40.967Z,48.85
2018-12-04T00:55:41.039Z,48.83
2018-12-04T00:56:40.684Z,48.77
2018-12-04T00:57:41.157Z,48.88
2018-12-04T00:58:41.074Z,48.88
2018-12-04T00:59:40.603Z,48.83
2018-12-04T01:00:41.446Z,48.9
2018-12-04T01:01:40.700Z,48.87
2018-12-04T01:02:41.136Z,48.91
2018-12-04T01:03:40.679Z,48.82
2018-12-04T01:04:41.022Z,48.92
2018-12-04T01:05:40.701Z,48.92
2018-12-04T01:06:41.042Z,48.92
2018-12-04T01:07:41.361Z,48.85
2018-12-04T01:08:41.031Z,48.85
2018-12-04T01:09:40.730Z,48.93
2018-12-04T01:10:40.705Z,48.88
2018-12-04T01:11:40.857Z,48.89
2018-12-04T01:12:40.858Z,48.91
2018-12-04T01:13:41.321Z,48.89
2018-12-04T01:14:40.877Z,48.85
2018-12-04T01:15:40.893Z,48.93
2018-12-04T01:16:40.710Z,48.9
2018-12-04T01:17:41.015Z,48.88
2018-12-04T01:18:41.333Z,48.9
2018-12-04T01:19:41.033Z,48.88
2018-12-04T01:20:40.775Z,48.84
2018-12-04T01:21:41.036Z,48.84
2018-12-04T01:22:40.735Z,48.86
2018-12-04T01:23:40.883Z,48.9
2018-12-04T01:24:41.355Z,48.89
2018-12-04T01:25:41.081Z,48.88
2018-12-04T01:26:40.804Z,48.85
2018-12-04T01:27:40.984Z,48.89
2018-12-04T01:28:40.817Z,48.87
2018-12-04T01:29:41.101Z,48.93
2018-12-04T01:30:40.969Z,48.94
2018-12-04T01:31:41.531Z,48.96
2018-12-04T01:32:40.655Z,48.87
2018-12-04T01:33:40.916Z,48.91
2018-12-04T01:34:40.967Z,48.89
2018-12-04T01:35:40.780Z,48.88
2018-12-04T01:36:40.845Z,48.94
2018-12-04T01:37:40.640Z,48.95
2018-12-04T01:38:40.859Z,48.86
2018-12-04T01:39:40.646Z,48.93
2018-12-04T01:40:41.078Z,48.94
2018-12-04T01:41:40.615Z,48.95
2018-12-04T01:42:40.735Z,48.99
2018-12-04T01:43:40.809Z,48.89
2018-12-04T01:44:40.637Z,48.91
2018-12-04T01:45:40.638Z,48.83
2018-12-04T01:46:40.739Z,48.93
2018-12-04T01:47:40.819Z,48.93
2018-12-04T01:48:40.637Z,48.9
2018-12-04T01:49:40.756Z,48.96
2018-12-04T01:50:40.648Z,48.92
2018-12-04T01:51:40.788Z,48.89
2018-12-04T01:52:40.936Z,48.87
2018-12-04T01:53:40.662Z,48.9
2018-12-04T01:54:40.749Z,48.94
2018-12-04T01:55:40.599Z,48.84
2018-12-04T01:56:40.821Z,48.92
2018-12-04T01:57:41.079Z,48.88
2018-12-04T01:58:40.828Z,48.9
2018-12-04T01:59:40.910Z,48.89
2018-12-04T02:00:41.010Z,48.86
2018-12-04T02:01:40.771Z,48.89
2018-12-04T02:02:40.651Z,48.95
2018-12-04T02:03:40.877Z,48.91
2018-12-04T02:04:40.639Z,48.92
2018-12-04T02:05:40.735Z,48.93
2018-12-04T02:06:40.930Z,48.89
2018-12-04T02:07:40.672Z,48.89
2018-12-04T02:08:41.177Z,48.87
2018-12-04T02:09:40.859Z,48.87
2018-12-04T02:10:40.535Z,48.96
2018-12-04T02:11:40.891Z,48.92
2018-12-04T02:12:40.883Z,48.89
2018-12-04T02:13:40.964Z,48.93
2018-12-04T02:14:41.013Z,48.95
2018-12-04T02:15:41.001Z,48.95
2018-12-04T02:16:41.128Z,48.92
2018-12-04T02:17:41.029Z,48.87
2018-12-04T02:18:40.823Z,48.93
2018-12-04T02:19:40.746Z,48.93
2018-12-04T02:20:40.750Z,48.94
2018-12-04T02:21:41.267Z,48.96
2018-12-04T02:22:40.896Z,48.93
2018-12-04T02:23:40.746Z,48.99
2018-12-04T02:24:41.008Z,48.99
2018-12-04T02:25:41.213Z,48.96
2018-12-04T02:26:41.522Z,48.9
2018-12-04T02:27:40.626Z,48.93
2018-12-04T02:28:40.787Z,48.96
2018-12-04T02:29:41.450Z,48.91
2018-12-04T02:30:40.822Z,48.87
2018-12-04T02:31:40.640Z,48.97
2018-12-04T02:32:41.326Z,48.91
2018-12-04T02:33:40.641Z,48.93
2018-12-04T02:34:40.934Z,48.92
2018-12-04T02:35:40.858Z,48.92
2018-12-04T02:36:41.228Z,48.96
2018-12-04T02:37:40.777Z,48.91
2018-12-04T02:38:41.884Z,48.91
2018-12-04T02:39:40.884Z,49
2018-12-04T02:40:40.916Z,48.93
2018-12-04T02:41:40.898Z,48.91
2018-12-04T02:42:40.816Z,48.95
2018-12-04T02:43:40.775Z,48.98
2018-12-04T02:44:40.543Z,49.01
2018-12-04T02:45:40.924Z,48.93
2018-12-04T02:46:40.502Z,48.98
2018-12-04T02:47:40.671Z,48.92
2018-12-04T02:48:40.748Z,48.94
2018-12-04T02:49:40.958Z,48.98
2018-12-04T02:50:40.970Z,48.98
2018-12-04T02:51:40.947Z,48.95
2018-12-04T02:52:40.810Z,48.94
2018-12-04T02:53:40.667Z,49
2018-12-04T02:54:41.102Z,48.96
2018-12-04T02:55:40.745Z,48.87
2018-12-04T02:56:40.669Z,48.89
2018-12-04T02:57:41.791Z,49
2018-12-04T02:58:40.741Z,49
2018-12-04T02:59:40.701Z,49.02
2018-12-04T03:00:40.694Z,48.91
2018-12-04T03:01:40.861Z,48.9
2018-12-04T03:02:40.765Z,48.97
2018-12-04T03:03:40.637Z,48.92
2018-12-04T03:04:40.673Z,49
2018-12-04T03:05:40.558Z,48.96
2018-12-04T03:06:40.665Z,48.91
2018-12-04T03:07:41.017Z,48.94
2018-12-04T03:08:40.833Z,48.92
2018-12-04T03:09:40.888Z,48.88
2018-12-04T03:10:40.678Z,48.94
2018-12-04T03:11:40.597Z,48.97
2018-12-04T03:12:40.781Z,48.96
2018-12-04T03:13:40.855Z,48.91
2018-12-04T03:14:40.823Z,48.89
2018-12-04T03:15:40.738Z,48.97
2018-12-04T03:16:40.697Z,48.82
2018-12-04T03:17:40.741Z,48.91
2018-12-04T03:18:40.813Z,48.94
2018-12-04T03:19:40.900Z,48.94
2018-12-04T03:20:40.970Z,48.95
2018-12-04T03:21:40.671Z,48.95
2018-12-04T03:22:40.674Z,48.88
2018-12-04T03:23:40.690Z,49
2018-12-04T03:24:40.635Z,48.98
2018-12-04T03:25:40.608Z,48.97
2018-12-04T03:26:40.635Z,49
2018-12-04T03:27:40.781Z,48.99
2018-12-04T03:28:40.721Z,48.99
2018-12-04T03:29:40.686Z,48.97
2018-12-04T03:30:40.765Z,48.9
2018-12-04T03:31:40.630Z,48.92
2018-12-04T03:32:40.533Z,48.93
2018-12-04T03:33:40.615Z,48.95
2018-12-04T03:34:40.645Z,48.99
2018-12-04T03:35:40.988Z,48.98
2018-12-04T03:36:41.072Z,48.89
2018-12-04T03:37:40.725Z,48.97
2018-12-04T03:38:40.644Z,48.97
2018-12-04T03:39:40.708Z,48.91
2018-12-04T03:40:40.819Z,48.97
2018-12-04T03:41:41.183Z,48.92
2018-12-04T03:42:40.816Z,48.92
2018-12-04T03:43:40.677Z,48.96
2018-12-04T03:44:40.618Z,48.95
2018-12-04T03:45:40.642Z,48.96
2018-12-04T03:46:40.762Z,48.97
2018-12-04T03:47:40.754Z,48.95
2018-12-04T03:48:40.746Z,48.98
2018-12-04T03:49:40.679Z,49.03
2018-12-04T03:50:40.793Z,49
2018-12-04T03:51:40.688Z,49.03
2018-12-04T03:52:40.950Z,48.96
2018-12-04T03:53:40.559Z,48.93
2018-12-04T03:54:41.509Z,48.99
2018-12-04T03:55:40.886Z,48.96
2018-12-04T03:56:40.972Z,48.96
2018-12-04T03:57:40.694Z,48.97
2018-12-04T03:58:41.060Z,49.03
2018-12-04T03:59:40.775Z,49.03
2018-12-04T04:00:41.053Z,49.03
2018-12-04T04:01:40.770Z,48.98
2018-12-04T04:02:40.600Z,48.99
2018-12-04T04:03:40.653Z,49.01
2018-12-04T04:04:40.928Z,49.06
2018-12-04T04:05:40.700Z,48.99
2018-12-04T04:06:41.598Z,49.01
2018-12-04T04:07:40.904Z,48.91
2018-12-04T04:08:40.695Z,48.98
2018-12-04T04:09:40.594Z,49.04
2018-12-04T04:10:40.686Z,49.06
2018-12-04T04:11:41.128Z,49.05
2018-12-04T04:12:41.565Z,49.04
2018-12-04T04:13:40.830Z,49.04
2018-12-04T04:14:40.837Z,49.04
2018-12-04T04:15:41.270Z,49.04
2018-12-04T04:16:40.777Z,48.98
2018-12-04T04:17:40.434Z,48.99
2018-12-04T04:18:41.485Z,49.09
2018-12-04T04:19:41.133Z,48.98
2018-12-04T04:20:40.641Z,49.03
2018-12-04T04:21:40.889Z,49.03
2018-12-04T04:22:40.802Z,49
2018-12-04T04:23:40.789Z,48.96
2018-12-04T04:24:40.820Z,48.95
2018-12-04T04:25:40.673Z,49
2018-12-04T04:26:40.643Z,48.95
2018-12-04T04:27:40.821Z,49.04
2018-12-04T04:28:40.890Z,48.97
2018-12-04T04:29:40.555Z,48.97
2018-12-04T04:30:40.969Z,49.03
2018-12-04T04:31:40.856Z,49
2018-12-04T04:32:40.612Z,49.06
2018-12-04T04:33:40.680Z,49.02
2018-12-04T04:34:40.561Z,48.93
2018-12-04T04:35:40.693Z,49.02
2018-12-04T04:36:40.567Z,48.96
2018-12-04T04:37:40.743Z,48.92
2018-12-04T04:38:40.786Z,48.97
2018-12-04T04:39:40.826Z,48.98
2018-12-04T04:40:41.074Z,48.95
2018-12-04T04:41:40.832Z,48.97
2018-12-04T04:42:40.772Z,48.97
2018-12-04T04:43:40.630Z,48.99
2018-12-04T04:44:40.452Z,48.96
2018-12-04T04:45:40.759Z,49
2018-12-04T04:46:40.682Z,48.88
2018-12-04T04:47:40.712Z,48.94
2018-12-04T04:48:40.606Z,48.86
2018-12-04T04:49:40.805Z,48.81
2018-12-04T04:50:40.692Z,48.81
2018-12-04T04:51:40.673Z,48.77
2018-12-04T04:52:40.544Z,48.73
2018-12-04T04:53:40.436Z,48.73
2018-12-04T04:54:40.628Z,48.7
2018-12-04T04:55:40.924Z,48.73
2018-12-04T04:56:40.407Z,48.65
2018-12-04T04:57:40.708Z,48.68
2018-12-04T04:58:40.762Z,48.64
2018-12-04T04:59:40.806Z,48.61
2018-12-04T05:00:40.708Z,48.61
2018-12-04T05:01:40.636Z,48.58
2018-12-04T05:02:40.615Z,48.56
2018-12-04T05:03:40.601Z,48.51
2018-12-04T05:04:40.606Z,48.51
2018-12-04T05:05:40.594Z,48.52
2018-12-04T05:06:40.638Z,48.48
2018-12-04T05:07:40.918Z,48.48
2018-12-04T05:08:40.838Z,48.46
2018-12-04T05:09:40.618Z,48.45
2018-12-04T05:10:40.633Z,48.44
2018-12-04T05:11:40.694Z,48.48
2018-12-04T05:12:40.986Z,48.42
2018-12-04T05:13:40.573Z,48.38
2018-12-04T05:14:40.775Z,48.39
2018-12-04T05:15:40.861Z,48.5
2018-12-04T05:16:40.875Z,48.57
2018-12-04T05:17:40.496Z,48.46
2018-12-04T05:18:40.730Z,48.46
2018-12-04T05:19:40.917Z,48.51
2018-12-04T05:20:41.018Z,48.52
2018-12-04T05:21:40.779Z,48.46
2018-12-04T05:22:40.746Z,48.48
2018-12-04T05:23:41.032Z,48.42
2018-12-04T05:24:40.650Z,48.44
2018-12-04T05:25:40.884Z,48.43
2018-12-04T05:26:40.824Z,48.48
2018-12-04T05:27:40.962Z,48.42
2018-12-04T05:28:40.865Z,48.44
2018-12-04T05:29:40.766Z,48.43
2018-12-04T05:30:40.816Z,48.48
2018-12-04T05:31:40.777Z,48.47
2018-12-04T05:32:40.715Z,48.56
2018-12-04T05:33:40.604Z,48.58
2018-12-04T05:34:40.849Z,48.46
2018-12-04T05:35:41.068Z,48.5
2018-12-04T05:36:40.680Z,48.8
2018-12-04T05:37:40.909Z,48.5
2018-12-04T05:38:40.659Z,48.44
2018-12-04T05:39:40.933Z,48.48
2018-12-04T05:40:40.534Z,48.45
2018-12-04T05:41:40.906Z,48.54
2018-12-04T05:42:40.961Z,48.52
2018-12-04T05:43:41.077Z,48.5
2018-12-04T05:44:40.559Z,48.54
2018-12-04T05:45:40.876Z,48.49
2018-12-04T05:46:40.440Z,48.47
2018-12-04T05:47:40.469Z,48.6
2018-12-04T05:48:40.674Z,48.48
2018-12-04T05:49:40.764Z,48.54
2018-12-04T05:50:40.817Z,48.52
2018-12-04T05:51:41.044Z,48.49
2018-12-04T05:52:40.726Z,48.55
2018-12-04T05:53:40.630Z,48.49
2018-12-04T05:54:40.854Z,48.46
2018-12-04T05:55:40.859Z,48.48
2018-12-04T05:56:40.440Z,48.45
2018-12-04T05:57:40.800Z,48.39
2018-12-04T05:58:41.028Z,48.4
2018-12-04T05:59:40.628Z,48.48
2018-12-04T06:00:40.787Z,48.4
2018-12-04T06:01:41.059Z,48.38
2018-12-04T06:02:40.651Z,48.42
2018-12-04T06:03:41.003Z,48.44
2018-12-04T06:04:40.706Z,48.51
2018-12-04T06:05:40.727Z,48.34
2018-12-04T06:06:40.774Z,48.48
2018-12-04T06:07:40.523Z,48.35
2018-12-04T06:08:40.686Z,48.33
2018-12-04T06:09:41.107Z,48.36
2018-12-04T06:10:40.617Z,48.32
2018-12-04T06:11:40.769Z,48.38
2018-12-04T06:12:40.908Z,48.44
2018-12-04T06:13:40.654Z,48.26
2018-12-04T06:14:40.541Z,48.33
2018-12-04T06:15:40.895Z,48.33
2018-12-04T06:16:41.101Z,48.36
2018-12-04T06:17:41.123Z,48.35
2018-12-04T06:18:40.957Z,48.38
2018-12-04T06:19:40.629Z,48.33
2018-12-04T06:20:40.487Z,48.38
2018-12-04T06:21:40.605Z,48.36
2018-12-04T06:22:40.747Z,48.41
2018-12-04T06:23:41.058Z,48.35
2018-12-04T06:24:40.949Z,48.23
2018-12-04T06:25:40.597Z,48.26
2018-12-04T06:26:40.938Z,48.18
2018-12-04T06:27:40.663Z,48.24
2018-12-04T06:28:40.583Z,48.34
2018-12-04T06:29:40.606Z,48.27
2018-12-04T06:30:40.696Z,48.22
2018-12-04T06:31:40.736Z,48.21
2018-12-04T06:32:40.494Z,48.2
2018-12-04T06:33:40.454Z,48.49
2018-12-04T06:34:40.747Z,48.21
2018-12-04T06:35:40.647Z,48.29
2018-12-04T06:36:40.742Z,48.2
2018-12-04T06:37:40.712Z,48.25
2018-12-04T06:38:40.598Z,48.21
2018-12-04T06:39:40.605Z,48.22
2018-12-04T06:40:40.683Z,48.22
2018-12-04T06:41:40.674Z,48.19
2018-12-04T06:42:40.694Z,48.19
2018-12-04T06:43:40.658Z,48.2
2018-12-04T06:44:40.612Z,48.25
2018-12-04T06:45:40.632Z,48.24
2018-12-04T06:46:40.709Z,48.34
2018-12-04T06:47:40.648Z,48.39
2018-12-04T06:48:40.814Z,48.21
2018-12-04T06:49:40.627Z,48.23
2018-12-04T06:50:40.909Z,48.2
2018-12-04T06:51:40.625Z,48.26
2018-12-04T06:52:40.961Z,48.2
2018-12-04T06:53:41.035Z,48.18
2018-12-04T06:54:40.676Z,48.21
2018-12-04T06:55:41.026Z,48.19
2018-12-04T06:56:40.601Z,48.25
2018-12-04T06:57:40.987Z,48.21
2018-12-04T06:58:40.908Z,48.2
2018-12-04T06:59:40.339Z,48.23
2018-12-04T07:00:40.736Z,48.27
2018-12-04T07:01:40.809Z,48.24
2018-12-04T07:02:40.739Z,48.23
2018-12-04T07:03:40.925Z,48.21
2018-12-04T07:04:40.737Z,48.24
2018-12-04T07:05:40.826Z,48.24
2018-12-04T07:06:40.707Z,48.24
2018-12-04T07:07:40.658Z,48.21
2018-12-04T07:08:40.905Z,48.24
2018-12-04T07:09:40.663Z,48.29
2018-12-04T07:10:40.613Z,48.27
2018-12-04T07:11:40.406Z,48.21
2018-12-04T07:12:40.980Z,48.22
2018-12-04T07:13:41.229Z,48.22
2018-12-04T07:14:40.826Z,48.22
2018-12-04T07:15:40.618Z,48.21
2018-12-04T07:16:40.506Z,48.24
2018-12-04T07:17:41.156Z,48.24
2018-12-04T07:18:40.742Z,48.25
2018-12-04T07:19:40.575Z,48.25
2018-12-04T07:20:41.349Z,48.25
2018-12-04T07:21:41.292Z,48.24
2018-12-04T07:22:40.785Z,48.2
2018-12-04T07:23:41.076Z,48.25
2018-12-04T07:24:40.871Z,48.21
2018-12-04T07:25:40.523Z,48.27
2018-12-04T07:26:40.575Z,48.24
2018-12-04T07:27:40.692Z,48.26
2018-12-04T07:28:40.918Z,48.24
2018-12-04T07:29:40.769Z,48.21
2018-12-04T07:30:41.050Z,48.2
2018-12-04T07:31:40.841Z,48.2
2018-12-04T07:32:40.602Z,48.21
2018-12-04T07:33:40.752Z,48.2
2018-12-04T07:34:40.665Z,48.25
2018-12-04T07:35:40.873Z,48.3
2018-12-04T07:36:40.776Z,48.28
2018-12-04T07:37:40.472Z,48.19
2018-12-04T07:38:40.779Z,48.19
2018-12-04T07:39:40.851Z,48.2
2018-12-04T07:40:40.612Z,48.2
2018-12-04T07:41:40.899Z,48.17
2018-12-04T07:42:40.829Z,48.23
2018-12-04T07:43:40.755Z,48.22
2018-12-04T07:44:40.422Z,48.21
2018-12-04T07:45:41.102Z,48.2
2018-12-04T07:46:40.830Z,48.17
2018-12-04T07:47:40.940Z,48.22
2018-12-04T07:48:40.636Z,48.18
2018-12-04T07:49:40.889Z,48.21
2018-12-04T07:50:40.964Z,48.2
2018-12-04T07:51:40.967Z,48.18
2018-12-04T07:52:40.595Z,48.23
2018-12-04T07:53:40.617Z,48.22
2018-12-04T07:54:40.586Z,48.25
2018-12-04T07:55:40.522Z,48.17
2018-12-04T07:56:40.468Z,48.2
2018-12-04T07:57:40.558Z,48.14
2018-12-04T07:58:40.897Z,48.14
2018-12-04T07:59:40.669Z,48.13
2018-12-04T08:00:40.631Z,48.14
2018-12-04T08:01:40.932Z,48.12
2018-12-04T08:02:40.620Z,48.14
2018-12-04T08:03:40.617Z,48.13
2018-12-04T08:04:41.183Z,48.21
2018-12-04T08:05:40.692Z,48.11
2018-12-04T08:06:40.624Z,48.11
2018-12-04T08:07:40.612Z,48.12
2018-12-04T08:08:40.626Z,48.16
2018-12-04T08:09:40.595Z,48.12
2018-12-04T08:10:40.606Z,48.08
2018-12-04T08:11:40.651Z,48.12
2018-12-04T08:12:40.926Z,48.15
2018-12-04T08:13:40.536Z,48.13
2018-12-04T08:14:40.983Z,48.15
2018-12-04T08:15:40.582Z,48.11
2018-12-04T08:16:40.410Z,48.14
2018-12-04T08:17:40.773Z,48.14
2018-12-04T08:18:40.317Z,48.11
2018-12-04T08:19:40.679Z,48.11
2018-12-04T08:20:40.739Z,48.07
2018-12-04T08:21:40.773Z,48.07
2018-12-04T08:22:40.398Z,48.11
2018-12-04T08:23:40.625Z,48.1
2018-12-04T08:24:40.615Z,48.08
2018-12-04T08:25:40.385Z,48.12
2018-12-04T08:26:41.113Z,48.16
2018-12-04T08:27:40.885Z,48.06
2018-12-04T08:28:41.339Z,48.12
2018-12-04T08:29:40.750Z,48.07
2018-12-04T08:30:40.644Z,48.1
2018-12-04T08:31:40.702Z,48.09
2018-12-04T08:32:40.563Z,48.08
2018-12-04T08:33:40.713Z,48.16
2018-12-04T08:34:40.671Z,48.09
2018-12-04T08:35:40.609Z,48.08
2018-12-04T08:36:40.640Z,48.1
2018-12-04T08:37:40.898Z,48.09
2018-12-04T08:38:41.314Z,48.07
2018-12-04T08:39:40.809Z,48.1
2018-12-04T08:40:40.341Z,48.09
2018-12-04T08:41:40.829Z,48.14
2018-12-04T08:42:40.963Z,48.06
2018-12-04T08:43:40.719Z,48.11
2018-12-04T08:44:41.474Z,48.13
2018-12-04T08:45:40.403Z,48.07
2018-12-04T08:46:41.050Z,48.08
2018-12-04T08:47:40.887Z,48.2
2018-12-04T08:48:40.591Z,48.1
2018-12-04T08:49:40.698Z,48.06
2018-12-04T08:50:40.768Z,48.08
2018-12-04T08:51:40.594Z,48.09
2018-12-04T08:52:40.691Z,48.09
2018-12-04T08:53:40.695Z,48.04
2018-12-04T08:54:40.788Z,48.11
2018-12-04T08:55:40.741Z,48.08
2018-12-04T08:56:40.602Z,48.07
2018-12-04T08:57:41.032Z,48.13
2018-12-04T08:58:40.314Z,48.11
2018-12-04T08:59:40.602Z,48.16
2018-12-04T09:00:40.850Z,48.08
2018-12-04T09:01:40.390Z,48.08
2018-12-04T09:02:40.587Z,48.08
2018-12-04T09:03:40.677Z,48.07
2018-12-04T09:04:40.442Z,48.06
2018-12-04T09:05:41.153Z,48.1
2018-12-04T09:06:40.892Z,48.13
2018-12-04T09:07:40.401Z,48.11
2018-12-04T09:08:40.604Z,48.13
2018-12-04T09:09:40.617Z,48.15
2018-12-04T09:10:40.813Z,48.11
2018-12-04T09:11:40.734Z,48.1
2018-12-04T09:12:40.375Z,48.15
2018-12-04T09:13:40.526Z,48.07
2018-12-04T09:14:40.430Z,48.2
2018-12-04T09:15:41.157Z,48.09
2018-12-04T09:16:40.446Z,48.08
2018-12-04T09:17:40.879Z,48.13
2018-12-04T09:18:40.915Z,48.08
2018-12-04T09:19:40.439Z,48.1
2018-12-04T09:20:41.134Z,48.13
2018-12-04T09:21:40.697Z,48.12
2018-12-04T09:22:40.576Z,48.06
2018-12-04T09:23:41.059Z,48.08
2018-12-04T09:24:40.829Z,48.12
2018-12-04T09:25:40.702Z,48.16
2018-12-04T09:26:40.541Z,48.11
2018-12-04T09:27:40.951Z,48.16
2018-12-04T09:28:40.758Z,48.14
2018-12-04T09:29:40.948Z,48.13
2018-12-04T09:30:40.916Z,48.12
2018-12-04T09:31:40.882Z,48.1
2018-12-04T09:32:40.699Z,48.09
2018-12-04T09:33:40.682Z,48.08
2018-12-04T09:34:40.417Z,48.07
2018-12-04T09:35:40.790Z,48.1
2018-12-04T09:36:40.693Z,48.09
2018-12-04T09:37:40.918Z,48.12
2018-12-04T09:38:40.884Z,48.08
2018-12-04T09:39:40.629Z,48.13
2018-12-04T09:40:40.764Z,48.11
2018-12-04T09:41:41.167Z,48.11
2018-12-04T09:42:40.773Z,48.06
2018-12-04T09:43:40.362Z,48.13
2018-12-04T09:44:40.658Z,48.12
2018-12-04T09:45:40.688Z,48.17
2018-12-04T09:46:40.618Z,48.12
2018-12-04T09:47:40.369Z,48.09
2018-12-04T09:48:40.603Z,48.12
2018-12-04T09:49:40.418Z,48.11
2018-12-04T09:50:40.716Z,48.11
2018-12-04T09:51:40.414Z,48.08
2018-12-04T09:52:40.406Z,48.1
2018-12-04T09:53:40.661Z,48.09
2018-12-04T09:54:40.680Z,48.14
2018-12-04T09:55:40.600Z,48.11
2018-12-04T09:56:40.730Z,48.08
2018-12-04T09:57:40.614Z,48.11
2018-12-04T09:58:40.346Z,48.12
2018-12-04T09:59:40.891Z,48.15
2018-12-04T10:00:40.580Z,48.1
2018-12-04T10:01:40.451Z,48.09
2018-12-04T10:02:40.660Z,48.13
2018-12-04T10:03:40.696Z,48.12
2018-12-04T10:04:40.805Z,48.11
2018-12-04T10:05:40.414Z,48.07
2018-12-04T10:06:40.722Z,48.13
2018-12-04T10:07:40.430Z,48.11
2018-12-04T10:08:40.756Z,48.14
2018-12-04T10:09:40.670Z,48.12
2018-12-04T10:10:40.447Z,48.13
2018-12-04T10:11:40.766Z,48.11
2018-12-04T10:12:40.701Z,48.09
2018-12-04T10:13:40.624Z,48.09
2018-12-04T10:14:40.455Z,48.12
2018-12-04T10:15:40.942Z,48.14
2018-12-04T10:16:43.430Z,48.1
2018-12-04T10:17:40.674Z,48.08
2018-12-04T10:18:40.550Z,48.07
2018-12-04T10:19:40.827Z,48.1
2018-12-04T10:20:40.587Z,48.07
2018-12-04T10:21:40.557Z,48.07
2018-12-04T10:22:40.769Z,48.08
2018-12-04T10:23:40.606Z,48.07
2018-12-04T10:24:40.551Z,48.06
2018-12-04T10:25:41.281Z,48.09
2018-12-04T10:26:40.696Z,48.09
2018-12-04T10:27:40.771Z,48.06
2018-12-04T10:28:41.366Z,48.1
2018-12-04T10:29:40.829Z,48.08
2018-12-04T10:30:40.736Z,48.08
2018-12-04T10:31:40.513Z,48.08
2018-12-04T10:32:40.645Z,48.04
2018-12-04T10:33:40.414Z,48.06
2018-12-04T10:34:40.948Z,48.2
2018-12-04T10:35:40.448Z,48.18
2018-12-04T10:36:40.605Z,48.29
2018-12-04T10:37:40.382Z,48.41
2018-12-04T10:38:40.473Z,48.35
2018-12-04T10:39:40.620Z,48.36
2018-12-04T10:40:40.406Z,48.32
2018-12-04T10:41:40.717Z,48.44
2018-12-04T10:42:40.396Z,48.27
2018-12-04T10:43:41.052Z,48.16
2018-12-04T10:44:40.645Z,48.16
2018-12-04T10:45:40.862Z,48.14
2018-12-04T10:46:41.063Z,48.1
2018-12-04T10:47:40.549Z,48.2
2018-12-04T10:48:40.857Z,48.13
2018-12-04T10:49:40.616Z,48.17
2018-12-04T10:50:40.925Z,48.14
2018-12-04T10:51:40.294Z,48.1
2018-12-04T10:52:41.092Z,48.1
2018-12-04T10:53:40.390Z,48.11
2018-12-04T10:54:40.936Z,48.1
2018-12-04T10:55:40.373Z,48.17
2018-12-04T10:56:40.730Z,48.19
2018-12-04T10:57:40.842Z,48.16
2018-12-04T10:58:40.493Z,48.12
2018-12-04T10:59:40.632Z,48.17
2018-12-04T11:00:40.866Z,48.11
2018-12-04T11:01:41.011Z,48.11
2018-12-04T11:02:40.773Z,48.11
2018-12-04T11:03:40.924Z,48.12
2018-12-04T11:04:40.690Z,48.09
2018-12-04T11:05:40.321Z,48.09
2018-12-04T11:06:40.627Z,48.12
2018-12-04T11:07:40.525Z,48.06
2018-12-04T11:08:40.515Z,48.12
2018-12-04T11:09:40.602Z,48.09
2018-12-04T11:10:40.487Z,48.1
2018-12-04T11:11:40.351Z,48.12
2018-12-04T11:12:40.862Z,48.06
2018-12-04T11:13:40.302Z,48.03
2018-12-04T11:14:40.333Z,48.04
2018-12-04T11:15:40.738Z,48.07
2018-12-04T11:16:40.477Z,48.06
2018-12-04T11:17:41.304Z,48.06
2018-12-04T11:18:40.789Z,48.1
2018-12-04T11:19:40.984Z,48.09
2018-12-04T11:20:40.760Z,48.13
2018-12-04T11:21:40.600Z,48.07
2018-12-04T11:22:40.342Z,48.06
2018-12-04T11:23:40.412Z,48.08
2018-12-04T11:24:40.935Z,48.07
2018-12-04T11:25:40.403Z,48.1
2018-12-04T11:26:40.741Z,48.04
2018-12-04T11:27:40.372Z,48.04
2018-12-04T11:28:41.254Z,48.06
2018-12-04T11:29:40.458Z,48.07
2018-12-04T11:30:40.668Z,48.09
2018-12-04T11:31:40.641Z,48.13
2018-12-04T11:32:40.907Z,48.07
2018-12-04T11:33:40.487Z,48.09
2018-12-04T11:34:40.697Z,47.97
2018-12-04T11:35:40.719Z,48.05
2018-12-04T11:36:40.783Z,48.01
2018-12-04T11:37:40.331Z,48.12
2018-12-04T11:38:40.972Z,48.01
2018-12-04T11:39:40.744Z,48.03
2018-12-04T11:40:40.932Z,48.05
2018-12-04T11:41:40.540Z,48.05
2018-12-04T11:42:40.671Z,48.1
2018-12-04T11:43:40.476Z,48.04
2018-12-04T11:44:40.671Z,48.17
2018-12-04T11:45:40.319Z,48.05
2018-12-04T11:46:40.774Z,47.97
2018-12-04T11:47:40.872Z,48.04
2018-12-04T11:48:40.821Z,47.99
2018-12-04T11:49:40.607Z,48.04
2018-12-04T11:50:41.127Z,48.05
2018-12-04T11:51:40.490Z,48.02
2018-12-04T11:52:40.337Z,48.02
2018-12-04T11:53:40.489Z,47.99
2018-12-04T11:54:40.303Z,48.01
2018-12-04T11:55:41.146Z,48.03
2018-12-04T11:56:40.795Z,48.02
2018-12-04T11:57:40.422Z,48.01
2018-12-04T11:58:40.873Z,47.98
2018-12-04T11:59:41.303Z,48.16
2018-12-04T12:00:40.589Z,47.96
2018-12-04T12:01:40.475Z,48.01
2018-12-04T12:02:40.399Z,47.99
2018-12-04T12:03:40.697Z,48.07
2018-12-04T12:04:40.845Z,48.07
2018-12-04T12:05:40.533Z,47.95
2018-12-04T12:06:40.740Z,47.97
2018-12-04T12:07:40.835Z,48
2018-12-04T12:08:40.750Z,48.01
2018-12-04T12:09:40.681Z,47.98
2018-12-04T12:10:40.792Z,47.99
2018-12-04T12:11:40.704Z,47.97
2018-12-04T12:12:41.029Z,47.99
2018-12-04T12:13:40.429Z,47.98
2018-12-04T12:14:40.578Z,47.96
2018-12-04T12:15:40.444Z,48.01
2018-12-04T12:16:40.402Z,47.98
2018-12-04T12:17:40.815Z,48
2018-12-04T12:18:40.271Z,47.97
2018-12-04T12:19:40.762Z,47.98
2018-12-04T12:20:41.151Z,47.94
2018-12-04T12:21:40.571Z,47.97
2018-12-04T12:22:40.635Z,47.98
2018-12-04T12:23:40.468Z,48.03
2018-12-04T12:24:40.755Z,47.96
2018-12-04T12:25:40.878Z,47.95
2018-12-04T12:26:40.448Z,47.99
2018-12-04T12:27:40.362Z,47.96
2018-12-04T12:28:40.588Z,47.96
2018-12-04T12:29:40.483Z,47.99
2018-12-04T12:30:40.634Z,47.97
2018-12-04T12:31:40.512Z,47.95
2018-12-04T12:32:40.335Z,47.98
2018-12-04T12:33:40.859Z,47.98
2018-12-04T12:34:40.628Z,48.02
2018-12-04T12:35:40.753Z,48
2018-12-04T12:36:40.412Z,47.99
2018-12-04T12:37:40.874Z,48.01
2018-12-04T12:38:40.246Z,47.96
2018-12-04T12:39:41.373Z,48.01
2018-12-04T12:40:40.683Z,48.02
2018-12-04T12:41:40.802Z,47.98
2018-12-04T12:42:40.362Z,47.95
2018-12-04T12:43:40.744Z,47.96
2018-12-04T12:44:41.019Z,47.99
2018-12-04T12:45:40.293Z,47.99
2018-12-04T12:46:40.424Z,47.97
2018-12-04T12:47:40.469Z,47.96
2018-12-04T12:48:40.773Z,47.98
2018-12-04T12:49:40.735Z,47.96
2018-12-04T12:50:40.853Z,47.99
2018-12-04T12:51:40.442Z,47.95
2018-12-04T12:52:40.444Z,47.91
2018-12-04T12:53:40.653Z,48
2018-12-04T12:54:40.984Z,47.97
2018-12-04T12:55:40.335Z,47.94
2018-12-04T12:56:40.569Z,47.94